Station Historical Data
Daily Summary for December 12, 2017 Units:  English    Metric   Both
« Previous Day
Next Day »
Daily Weekly Monthly Yearly Custom
  High: Low: Average:
Temperature: 30.9 °F 12.2 °F 23.5 °F
Dew Point: 28.7 °F 6.4 °F 18.9 °F
Humidity: 92% 66% 83%
Wind Speed: 14.0mph 0.0mph 4.5mph
Wind Gust: 25.0mph - -
Wind- - West
Pressure: 29.72 in 29.53 in -
Precipitation: 0.00 in    
Historical Graphs
 
 
Tabular Data for December 12, 2017
Time Temperature Dew Point Pressure Wind Wind Speed Wind Gust Humidity Rainfall Rate (Hourly)
00:04 27.7 °F 24.6 °F 29.72 in Calm     88% 0.00 in
00:14 27.8 °F 24.7 °F 29.71 in Calm     88% 0.00 in
00:19 27.8 °F 24.7 °F 29.70 in Calm     88% 0.00 in
00:24 27.9 °F 24.8 °F 29.70 in Calm     88% 0.00 in
00:29 28.0 °F 25.2 °F 29.70 in Calm     89% 0.00 in
00:39 28.2 °F 25.4 °F 29.69 in Calm     89% 0.00 in
00:59 28.5 °F 25.7 °F 29.67 in Calm     89% 0.00 in
01:09 28.5 °F 25.7 °F 29.67 in Calm     89% 0.00 in
01:14 28.5 °F 25.7 °F 29.66 in Calm   3.0 mph 89% 0.00 in
01:29 28.7 °F 26.1 °F 29.65 in ESE 1.0 mph 4.0 mph 90% 0.00 in
01:34 28.7 °F 26.1 °F 29.65 in Calm   3.0 mph 90% 0.00 in
01:39 28.7 °F 26.1 °F 29.64 in Calm     90% 0.00 in
01:44 28.7 °F 26.1 °F 29.64 in Calm     90% 0.00 in
01:49 28.9 °F 26.3 °F 29.64 in Calm     90% 0.00 in
01:54 28.9 °F 26.3 °F 29.63 in Calm     90% 0.00 in
02:04 29.0 °F 26.4 °F 29.63 in Calm     90% 0.00 in
02:09 29.1 °F 26.5 °F 29.63 in Calm     90% 0.00 in
02:34 28.9 °F 26.3 °F 29.61 in Calm     90% 0.00 in
02:39 29.0 °F 26.4 °F 29.61 in Calm     90% 0.00 in
02:44 29.0 °F 26.4 °F 29.61 in Calm     90% 0.00 in
02:49 29.0 °F 26.4 °F 29.60 in Calm     90% 0.00 in
02:54 29.0 °F 26.4 °F 29.60 in Calm     90% 0.00 in
02:59 29.1 °F 26.5 °F 29.60 in Calm     90% 0.00 in
03:04 29.1 °F 26.5 °F 29.60 in Calm     90% 0.00 in
03:09 29.1 °F 26.5 °F 29.60 in Calm     90% 0.00 in
03:14 29.2 °F 26.9 °F 29.60 in Calm     91% 0.00 in
03:19 29.2 °F 26.9 °F 29.59 in Calm     91% 0.00 in
03:24 29.3 °F 27.0 °F 29.59 in Calm     91% 0.00 in
03:34 29.3 °F 27.0 °F 29.58 in Calm     91% 0.00 in
03:39 29.4 °F 27.1 °F 29.58 in Calm     91% 0.00 in
03:44 29.4 °F 27.1 °F 29.58 in Calm     91% 0.00 in
03:54 29.6 °F 27.3 °F 29.57 in Calm     91% 0.00 in
04:04 29.6 °F 27.3 °F 29.56 in Calm     91% 0.00 in
04:09 29.6 °F 27.3 °F 29.56 in Calm     91% 0.00 in
04:14 29.6 °F 27.3 °F 29.56 in Calm     91% 0.00 in
04:19 29.6 °F 27.3 °F 29.55 in Calm     91% 0.00 in
04:29 29.7 °F 27.4 °F 29.55 in Calm     91% 0.00 in
04:34 29.7 °F 27.4 °F 29.55 in Calm     91% 0.00 in
04:44 29.8 °F 27.5 °F 29.55 in Calm     91% 0.00 in
04:49 29.8 °F 27.5 °F 29.55 in Calm     91% 0.00 in
04:54 29.9 °F 27.6 °F 29.54 in Calm     91% 0.00 in
04:59 30.1 °F 27.8 °F 29.55 in Calm     91% 0.00 in
05:09 30.2 °F 27.9 °F 29.55 in Calm     91% 0.00 in
05:14 30.2 °F 27.9 °F 29.54 in Calm     91% 0.00 in
05:24 30.2 °F 27.9 °F 29.54 in Calm     91% 0.00 in
05:29 30.3 °F 28.0 °F 29.54 in Calm     91% 0.00 in
05:34 30.4 °F 28.1 °F 29.54 in Calm     91% 0.00 in
05:39 30.4 °F 28.1 °F 29.54 in Calm     91% 0.00 in
05:44 30.5 °F 28.2 °F 29.54 in Calm     91% 0.00 in
05:49 30.6 °F 28.3 °F 29.53 in Calm     91% 0.00 in
05:54 30.7 °F 28.7 °F 29.54 in Calm     92% 0.00 in
05:59 30.7 °F 28.4 °F 29.54 in Calm     91% 0.00 in
06:04 30.8 °F 28.5 °F 29.53 in Calm     91% 0.00 in
06:14 30.9 °F 28.6 °F 29.53 in Calm     91% 0.00 in
06:19 30.9 °F 28.6 °F 29.53 in Calm     91% 0.00 in
06:24 30.9 °F 28.6 °F 29.53 in Calm     91% 0.00 in
06:29 30.9 °F 28.6 °F 29.53 in Calm     91% 0.00 in
06:34 30.9 °F 28.6 °F 29.53 in Calm     91% 0.00 in
06:39 30.9 °F 28.6 °F 29.53 in Calm     91% 0.00 in
06:44 30.8 °F 28.5 °F 29.53 in Calm     91% 0.00 in
06:49 30.6 °F 28.3 °F 29.53 in Calm     91% 0.00 in
06:54 30.5 °F 28.5 °F 29.53 in Calm     92% 0.00 in
06:59 30.3 °F 28.3 °F 29.53 in Calm     92% 0.00 in
07:04 30.2 °F 27.9 °F 29.53 in Calm     91% 0.00 in
07:09 30.3 °F 28.0 °F 29.53 in Calm     91% 0.00 in
07:14 30.3 °F 28.3 °F 29.54 in Calm     92% 0.00 in
07:19 30.3 °F 28.3 °F 29.54 in Calm     92% 0.00 in
07:24 30.3 °F 28.3 °F 29.54 in Calm     92% 0.00 in
07:29 30.4 °F 28.4 °F 29.54 in Calm     92% 0.00 in
07:34 30.4 °F 28.4 °F 29.54 in Calm     92% 0.00 in
07:39 30.5 °F 28.5 °F 29.54 in Calm     92% 0.00 in
07:44 30.6 °F 28.6 °F 29.54 in Calm     92% 0.00 in
07:49 30.6 °F 28.6 °F 29.54 in Calm     92% 0.00 in
07:59 30.7 °F 28.7 °F 29.54 in Calm     92% 0.00 in
08:04 30.6 °F 28.6 °F 29.54 in WNW 1.0 mph 6.0 mph 92% 0.00 in
08:09 30.5 °F 28.5 °F 29.54 in NW 2.0 mph 6.0 mph 92% 0.00 in
08:19 30.4 °F 28.4 °F 29.54 in WNW 5.0 mph 6.0 mph 92% 0.00 in
08:24 30.2 °F 27.9 °F 29.54 in WNW 1.0 mph 6.0 mph 91% 0.00 in
08:29 30.1 °F 28.1 °F 29.54 in WNW 3.0 mph 7.0 mph 92% 0.00 in
08:34 30.0 °F 28.0 °F 29.54 in WNW 3.0 mph 7.0 mph 92% 0.00 in
08:39 30.0 °F 28.0 °F 29.55 in WNW 2.0 mph 7.0 mph 92% 0.00 in
08:49 29.8 °F 27.8 °F 29.55 in WNW 2.0 mph 6.0 mph 92% 0.00 in
08:54 29.8 °F 27.8 °F 29.55 in WNW 3.0 mph 7.0 mph 92% 0.00 in
08:59 29.6 °F 27.3 °F 29.55 in West 3.0 mph 7.0 mph 91% 0.00 in
09:04 29.5 °F 27.2 °F 29.56 in WNW 5.0 mph 8.0 mph 91% 0.00 in
09:09 29.4 °F 27.1 °F 29.56 in WNW 4.0 mph 7.0 mph 91% 0.00 in
09:19 29.1 °F 26.8 °F 29.56 in West 8.0 mph 11.0 mph 91% 0.00 in
09:24 29.0 °F 26.7 °F 29.56 in WNW 3.0 mph 9.0 mph 91% 0.00 in
09:29 28.9 °F 26.6 °F 29.57 in WNW 7.0 mph 10.0 mph 91% 0.00 in
09:39 28.5 °F 26.2 °F 29.57 in WNW 6.0 mph 11.0 mph 91% 0.00 in
09:49 28.1 °F 25.5 °F 29.57 in WNW 6.0 mph 13.0 mph 90% 0.00 in
09:54 28.0 °F 25.4 °F 29.58 in WNW 6.0 mph 9.0 mph 90% 0.00 in
10:04 27.1 °F 24.6 °F 29.58 in WNW 3.0 mph 14.0 mph 90% 0.00 in
10:14 26.4 °F 23.6 °F 29.59 in WNW 7.0 mph 16.0 mph 89% 0.00 in
10:19 25.9 °F 23.1 °F 29.60 in WNW 9.0 mph 16.0 mph 89% 0.00 in
10:24 25.6 °F 22.8 °F 29.60 in West 6.0 mph 18.0 mph 89% 0.00 in
10:29 25.6 °F 22.8 °F 29.60 in West 3.0 mph 11.0 mph 89% 0.00 in
10:34 25.6 °F 22.8 °F 29.61 in West 9.0 mph 18.0 mph 89% 0.00 in
10:39 25.7 °F 22.9 °F 29.61 in West 10.0 mph 13.0 mph 89% 0.00 in
10:44 25.7 °F 22.9 °F 29.61 in West 7.0 mph 13.0 mph 89% 0.00 in
10:49 25.6 °F 22.5 °F 29.61 in West 6.0 mph 12.0 mph 88% 0.00 in
10:54 25.6 °F 22.5 °F 29.61 in West 6.0 mph 11.0 mph 88% 0.00 in
10:59 25.5 °F 22.4 °F 29.61 in SW 4.0 mph 13.0 mph 88% 0.00 in
11:09 25.5 °F 22.2 °F 29.61 in West 7.0 mph 13.0 mph 87% 0.00 in
11:19 25.6 °F 22.0 °F 29.61 in West 6.0 mph 15.0 mph 86% 0.00 in
11:24 25.8 °F 22.2 °F 29.61 in West 7.0 mph 11.0 mph 86% 0.00 in
11:39 26.3 °F 21.8 °F 29.60 in SW 5.0 mph 11.0 mph 83% 0.00 in
11:44 26.3 °F 21.6 °F 29.61 in WNW 5.0 mph 12.0 mph 82% 0.00 in
11:49 26.3 °F 21.0 °F 29.61 in WSW 6.0 mph 12.0 mph 80% 0.00 in
11:54 26.2 °F 20.6 °F 29.61 in West 7.0 mph 13.0 mph 79% 0.00 in
12:09 26.6 °F 20.4 °F 29.61 in West 6.0 mph 13.0 mph 77% 0.00 in
12:19 27.0 °F 20.1 °F 29.61 in West 6.0 mph 14.0 mph 75% 0.00 in
12:24 26.7 °F 19.5 °F 29.61 in West 8.0 mph 16.0 mph 74% 0.00 in
12:34 26.2 °F 18.7 °F 29.61 in West 7.0 mph 15.0 mph 73% 0.00 in
12:39 26.0 °F 18.5 °F 29.61 in WNW 6.0 mph 15.0 mph 73% 0.00 in
12:49 25.7 °F 17.9 °F 29.61 in WNW 6.0 mph 15.0 mph 72% 0.00 in
12:54 25.6 °F 17.8 °F 29.61 in West 8.0 mph 15.0 mph 72% 0.00 in
12:59 25.5 °F 17.7 °F 29.61 in West 7.0 mph 17.0 mph 72% 0.00 in
13:04 25.5 °F 17.4 °F 29.61 in West 6.0 mph 11.0 mph 71% 0.00 in
13:09 25.6 °F 17.5 °F 29.61 in West 7.0 mph 16.0 mph 71% 0.00 in
13:14 25.4 °F 17.3 °F 29.61 in West 8.0 mph 19.0 mph 71% 0.00 in
13:19 25.3 °F 17.2 °F 29.61 in West 9.0 mph 19.0 mph 71% 0.00 in
13:29 24.7 °F 14.9 °F 29.61 in SW 9.0 mph 16.0 mph 66% 0.00 in
13:34 24.6 °F 15.2 °F 29.61 in WSW 9.0 mph 13.0 mph 67% 0.00 in
13:39 24.6 °F 15.5 °F 29.61 in NW 10.0 mph 13.0 mph 68% 0.00 in
13:49 24.8 °F 16.4 °F 29.62 in West 4.0 mph 13.0 mph 70% 0.00 in
13:54 24.8 °F 16.4 °F 29.62 in West 8.0 mph 12.0 mph 70% 0.00 in
14:04 24.8 °F 15.7 °F 29.62 in West 8.0 mph 16.0 mph 68% 0.00 in
14:24 24.2 °F 15.5 °F 29.63 in SW 8.0 mph 18.0 mph 69% 0.00 in
14:29 24.0 °F 15.3 °F 29.63 in West 8.0 mph 18.0 mph 69% 0.00 in
14:34 23.7 °F 15.0 °F 29.64 in West 9.0 mph 16.0 mph 69% 0.00 in
14:39 23.9 °F 14.9 °F 29.64 in West 9.0 mph 16.0 mph 68% 0.00 in
14:49 23.3 °F 14.0 °F 29.64 in WNW 13.0 mph 17.0 mph 67% 0.00 in
14:54 22.8 °F 14.1 °F 29.64 in WNW 7.0 mph 17.0 mph 69% 0.00 in
14:59 22.1 °F 13.8 °F 29.64 in West 12.0 mph 18.0 mph 70% 0.00 in
15:14 22.0 °F 13.0 °F 29.64 in West 7.0 mph 17.0 mph 68% 0.00 in
15:24 21.6 °F 12.0 °F 29.65 in West 4.0 mph 21.0 mph 66% 0.00 in
15:29 21.3 °F 12.4 °F 29.65 in West 7.0 mph 21.0 mph 68% 0.00 in
15:39 20.5 °F 12.9 °F 29.65 in West 11.0 mph 21.0 mph 72% 0.00 in
15:44 20.3 °F 12.7 °F 29.65 in West 11.0 mph 20.0 mph 72% 0.00 in
15:49 20.1 °F 12.5 °F 29.66 in West 6.0 mph 19.0 mph 72% 0.00 in
15:54 20.0 °F 12.4 °F 29.66 in West 7.0 mph 17.0 mph 72% 0.00 in
15:59 19.8 °F 12.5 °F 29.66 in WNW 8.0 mph 15.0 mph 73% 0.00 in
16:04 19.7 °F 12.4 °F 29.66 in WNW 4.0 mph 12.0 mph 73% 0.00 in
16:09 19.6 °F 12.3 °F 29.66 in WNW 7.0 mph 15.0 mph 73% 0.00 in
16:14 19.3 °F 12.1 °F 29.66 in West 7.0 mph 15.0 mph 73% 0.00 in
16:19 19.1 °F 11.9 °F 29.66 in West 8.0 mph 15.0 mph 73% 0.00 in
16:34 18.5 °F 11.0 °F 29.67 in West 9.0 mph 17.0 mph 72% 0.00 in
16:49 17.7 °F 10.2 °F 29.67 in WSW 9.0 mph 21.0 mph 72% 0.00 in
16:54 17.3 °F 10.1 °F 29.67 in SW 7.0 mph 22.0 mph 73% 0.00 in
16:59 16.9 °F 10.0 °F 29.67 in West 9.0 mph 21.0 mph 74% 0.00 in
17:04 16.7 °F 9.8 °F 29.67 in NW 8.0 mph 17.0 mph 74% 0.00 in
17:09 16.6 °F 9.4 °F 29.67 in West 9.0 mph 17.0 mph 73% 0.00 in
17:14 16.4 °F 9.3 °F 29.67 in West 9.0 mph 18.0 mph 73% 0.00 in
17:19 16.3 °F 8.9 °F 29.67 in West 8.0 mph 21.0 mph 72% 0.00 in
17:39 16.0 °F 8.9 °F 29.68 in West 9.0 mph 17.0 mph 73% 0.00 in
17:44 15.8 °F 8.7 °F 29.69 in West 6.0 mph 16.0 mph 73% 0.00 in
17:49 15.7 °F 8.6 °F 29.69 in WNW 10.0 mph 22.0 mph 73% 0.00 in
17:54 15.6 °F 8.5 °F 29.69 in NW 9.0 mph 19.0 mph 73% 0.00 in
18:04 15.3 °F 8.5 °F 29.69 in SSW 7.0 mph 14.0 mph 74% 0.00 in
18:09 15.2 °F 8.4 °F 29.69 in West 8.0 mph 15.0 mph 74% 0.00 in
18:19 15.1 °F 8.0 °F 29.69 in West 8.0 mph 16.0 mph 73% 0.00 in
18:24 15.1 °F 8.0 °F 29.69 in West 8.0 mph 16.0 mph 73% 0.00 in
18:29 15.1 °F 8.3 °F 29.69 in West 8.0 mph 17.0 mph 74% 0.00 in
18:34 15.1 °F 8.3 °F 29.69 in WSW 9.0 mph 17.0 mph 74% 0.00 in
18:44 15.1 °F 8.3 °F 29.69 in West 5.0 mph 17.0 mph 74% 0.00 in
18:54 15.1 °F 8.6 °F 29.69 in WNW 14.0 mph 14.0 mph 75% 0.00 in
18:59 15.1 °F 8.6 °F 29.69 in West 9.0 mph 18.0 mph 75% 0.00 in
19:04 15.1 °F 8.9 °F 29.69 in WSW 10.0 mph 11.0 mph 76% 0.00 in
19:09 15.1 °F 8.9 °F 29.69 in SW 10.0 mph 14.0 mph 76% 0.00 in
19:14 15.0 °F 9.1 °F 29.70 in WSW 9.0 mph 15.0 mph 77% 0.00 in
19:19 15.0 °F 9.1 °F 29.70 in WSW 10.0 mph 25.0 mph 77% 0.00 in
19:24 14.9 °F 9.0 °F 29.70 in WSW 9.0 mph 25.0 mph 77% 0.00 in
19:29 14.9 °F 9.0 °F 29.70 in WNW 9.0 mph 25.0 mph 77% 0.00 in
19:34 14.8 °F 8.9 °F 29.69 in SW 9.0 mph 19.0 mph 77% 0.00 in
19:44 14.8 °F 8.9 °F 29.70 in WSW 9.0 mph 19.0 mph 77% 0.00 in
19:54 14.7 °F 8.8 °F 29.69 in WSW 9.0 mph 19.0 mph 77% 0.00 in
19:59 14.6 °F 9.0 °F 29.69 in West 9.0 mph 18.0 mph 78% 0.00 in
20:04 14.6 °F 9.0 °F 29.69 in SW 5.0 mph 16.0 mph 78% 0.00 in
20:09 14.4 °F 8.8 °F 29.69 in WSW 7.0 mph 18.0 mph 78% 0.00 in
20:29 14.1 °F 8.2 °F 29.69 in West 8.0 mph 17.0 mph 77% 0.00 in
20:44 14.0 °F 8.4 °F 29.69 in WNW 8.0 mph 17.0 mph 78% 0.00 in
20:49 14.0 °F 8.4 °F 29.68 in West 6.0 mph 17.0 mph 78% 0.00 in
20:54 13.9 °F 8.3 °F 29.68 in West 6.0 mph 13.0 mph 78% 0.00 in
21:09 13.8 °F 8.2 °F 29.68 in West 7.0 mph 17.0 mph 78% 0.00 in
21:14 13.7 °F 8.1 °F 29.68 in West 5.0 mph 17.0 mph 78% 0.00 in
21:24 13.5 °F 8.2 °F 29.68 in West 8.0 mph 15.0 mph 79% 0.00 in
21:34 13.5 °F 8.2 °F 29.68 in West 7.0 mph 16.0 mph 79% 0.00 in
21:39 13.5 °F 8.2 °F 29.67 in West 7.0 mph 14.0 mph 79% 0.00 in
21:44 13.4 °F 8.1 °F 29.67 in WSW 8.0 mph 16.0 mph 79% 0.00 in
21:49 13.4 °F 8.1 °F 29.67 in West 5.0 mph 14.0 mph 79% 0.00 in
21:54 13.3 °F 8.0 °F 29.67 in West 8.0 mph 15.0 mph 79% 0.00 in
21:59 13.3 °F 8.0 °F 29.67 in West 8.0 mph 15.0 mph 79% 0.00 in
22:04 13.3 °F 8.0 °F 29.67 in West 5.0 mph 13.0 mph 79% 0.00 in
22:09 13.3 °F 8.0 °F 29.67 in West 5.0 mph 14.0 mph 79% 0.00 in
22:14 13.3 °F 8.0 °F 29.67 in WSW 6.0 mph 13.0 mph 79% 0.00 in
22:19 13.3 °F 8.0 °F 29.67 in West 7.0 mph 14.0 mph 79% 0.00 in
22:29 13.2 °F 7.9 °F 29.67 in West 6.0 mph 14.0 mph 79% 0.00 in
22:34 13.2 °F 7.9 °F 29.67 in WSW 5.0 mph 12.0 mph 79% 0.00 in
22:39 13.2 °F 7.9 °F 29.67 in West 6.0 mph 14.0 mph 79% 0.00 in
22:44 13.2 °F 7.9 °F 29.67 in West 7.0 mph 14.0 mph 79% 0.00 in
22:49 13.1 °F 7.8 °F 29.67 in West 7.0 mph 14.0 mph 79% 0.00 in
22:54 13.0 °F 7.7 °F 29.66 in West 4.0 mph 13.0 mph 79% 0.00 in
22:59 13.0 °F 7.7 °F 29.66 in West 12.0 mph 12.0 mph 79% 0.00 in
23:04 12.9 °F 7.6 °F 29.66 in West 6.0 mph 16.0 mph 79% 0.00 in
23:14 12.8 °F 7.2 °F 29.66 in West 3.0 mph 9.0 mph 78% 0.00 in
23:19 12.7 °F 7.1 °F 29.66 in West 6.0 mph 11.0 mph 78% 0.00 in
23:24 12.7 °F 7.1 °F 29.66 in West 7.0 mph 11.0 mph 78% 0.00 in
23:29 12.6 °F 7.0 °F 29.66 in WNW 4.0 mph 17.0 mph 78% 0.00 in
23:39 12.5 °F 6.9 °F 29.65 in West 5.0 mph 17.0 mph 78% 0.00 in
23:49 12.4 °F 6.6 °F 29.66 in West 7.0 mph 14.0 mph 77% 0.00 in
23:54 12.3 °F 6.5 °F 29.65 in West 7.0 mph 14.0 mph 77% 0.00 in
23:59 12.2 °F 6.4 °F 29.65 in West 7.0 mph 16.0 mph 77% 0.00 in
Buffalo, New York, USA
Compliments of Weather Underground - 2 mb